Time;durP1;ratioP1;P1;durP2;ratioP2;P2;SDS_P1;SDS_P2;PMS_P1;PMS_P2;Temp;Humidity;BMP_temperature;BMP_pressure;BME280_temperature;BME280_humidity;BME280_pressure;Samples;Min_cycle;Max_cycle;Signal;HPM_P1;HPM_P2
2021/07/04 00:01:35;;;;;;;;;;;18.30;99.90;;;;;;5087982;28;19920;-83
2021/07/04 00:04:01;;;;;;;;;;;18.30;99.90;;;;;;5071582;28;20384;-82
2021/07/04 00:06:27;;;;;;;;;;;18.30;99.90;;;;;;5087681;28;19963;-82
2021/07/04 00:08:53;;;;;;;;;;;18.30;99.90;;;;;;5088777;28;20387;-83
2021/07/04 00:11:19;;;;;;;;;;;18.30;99.90;;;;;;5087662;28;20379;-83
2021/07/04 00:13:44;;;;;;;;;;;18.30;99.90;;;;;;5087992;28;20015;-83
2021/07/04 00:16:10;;;;;;;;;;;18.30;99.90;;;;;;5087992;28;20019;-83
2021/07/04 00:18:36;;;;;;;;;;;18.30;99.90;;;;;;5071103;28;20439;-83
2021/07/04 00:21:03;;;;;;;;;;;18.20;99.90;;;;;;5088351;28;19927;-82
2021/07/04 00:23:29;;;;;;;;;;;18.20;99.90;;;;;;5088708;28;19927;-82
2021/07/04 00:25:56;;;;;;;;;;;18.20;99.90;;;;;;5087533;28;20349;-83
2021/07/04 00:28:23;;;;;;;;;;;18.20;99.90;;;;;;5088159;28;19981;-83
2021/07/04 00:30:49;;;;;;;;;;;18.20;99.90;;;;;;5071114;28;19978;-83
2021/07/04 00:33:15;;;;;;;;;;;18.10;99.90;;;;;;5105021;28;19920;-83
2021/07/04 00:35:41;;;;;;;;;;;18.10;99.90;;;;;;5088805;28;19927;-83
2021/07/04 00:38:07;;;;;;;;;;;18.10;99.90;;;;;;5071312;28;20375;-83
2021/07/04 00:40:33;;;;;;;;;;;18.10;99.90;;;;;;5087971;28;19927;-83
2021/07/04 00:42:58;;;;;;;;;;;18.10;99.90;;;;;;5070219;28;20613;-82
2021/07/04 00:45:25;;;;;;;;;;;18.10;99.90;;;;;;5087236;28;19931;-83
2021/07/04 00:47:51;;;;;;;;;;;18.10;99.90;;;;;;5087465;28;19920;-83
2021/07/04 00:50:18;;;;;;;;;;;18.10;99.90;;;;;;5087721;28;19920;-83
2021/07/04 00:52:44;;;;;;;;;;;18.10;99.90;;;;;;5087314;28;19920;-83
2021/07/04 00:55:13;;;;;;;;;;;18.10;99.90;;;;;;5071699;28;19924;-83
2021/07/04 00:57:39;;;;;;;;;;;18.10;99.90;;;;;;5087456;28;20398;-83
2021/07/04 01:00:15;;;;;;;;;;;18.10;99.90;;;;;;5087793;28;19920;-83
2021/07/04 01:02:41;;;;;;;;;;;18.10;99.90;;;;;;5067398;28;20315;-83
2021/07/04 01:05:09;;;;;;;;;;;18.10;99.90;;;;;;5085290;28;20276;-82
2021/07/04 01:07:35;;;;;;;;;;;18.00;99.90;;;;;;5087602;28;20349;-82
2021/07/04 01:10:01;;;;;;;;;;;18.00;99.90;;;;;;5070914;28;19920;-83
2021/07/04 01:12:27;;;;;;;;;;;18.00;99.90;;;;;;5067380;28;19973;-82
2021/07/04 01:14:52;;;;;;;;;;;18.00;99.90;;;;;;5070835;28;19977;-83
2021/07/04 01:17:19;;;;;;;;;;;18.00;99.90;;;;;;5087039;28;19932;-83
2021/07/04 01:19:44;;;;;;;;;;;18.00;99.90;;;;;;5087420;28;20024;-83
2021/07/04 01:22:11;;;;;;;;;;;18.00;99.90;;;;;;5070318;28;20394;-83
2021/07/04 01:24:37;;;;;;;;;;;18.00;99.90;;;;;;5108385;28;19928;-82
2021/07/04 01:27:03;;;;;;;;;;;18.00;99.90;;;;;;5074212;28;19985;-83
2021/07/04 01:29:28;;;;;;;;;;;18.00;99.90;;;;;;5091467;28;19932;-83
2021/07/04 01:31:54;;;;;;;;;;;18.00;99.90;;;;;;5071838;28;20320;-82
2021/07/04 01:34:20;;;;;;;;;;;18.00;99.90;;;;;;5074258;28;19920;-83
2021/07/04 01:36:46;;;;;;;;;;;18.10;99.90;;;;;;5071197;28;19924;-83
2021/07/04 01:39:11;;;;;;;;;;;18.10;99.90;;;;;;5090913;28;19969;-83
2021/07/04 01:41:37;;;;;;;;;;;18.00;99.90;;;;;;5091331;28;19924;-82
2021/07/04 01:44:03;;;;;;;;;;;18.00;99.90;;;;;;5091408;28;19931;-82
2021/07/04 01:46:29;;;;;;;;;;;18.00;99.90;;;;;;5090769;28;19920;-82
2021/07/04 01:48:55;;;;;;;;;;;18.00;99.90;;;;;;5090861;28;19924;-83
2021/07/04 01:51:20;;;;;;;;;;;18.00;99.90;;;;;;5090653;28;19981;-83
2021/07/04 01:53:46;;;;;;;;;;;18.00;99.90;;;;;;5091249;28;19920;-82
2021/07/04 01:56:12;;;;;;;;;;;18.00;99.90;;;;;;5073373;28;19924;-82
2021/07/04 01:58:39;;;;;;;;;;;17.90;99.90;;;;;;5073967;28;19928;-83
2021/07/04 02:01:06;;;;;;;;;;;17.90;99.90;;;;;;5090981;28;20013;-83
2021/07/04 02:03:32;;;;;;;;;;;17.90;99.90;;;;;;5090719;28;20019;-83
2021/07/04 02:05:57;;;;;;;;;;;17.90;99.90;;;;;;5090448;28;20113;-82
2021/07/04 02:08:23;;;;;;;;;;;17.90;99.90;;;;;;5070448;28;20441;-83
2021/07/04 02:10:49;;;;;;;;;;;17.90;99.90;;;;;;5070979;28;19989;-82
2021/07/04 02:13:14;;;;;;;;;;;17.90;99.90;;;;;;5090343;28;19927;-83
2021/07/04 02:15:40;;;;;;;;;;;17.90;99.90;;;;;;5090677;28;20504;-83
2021/07/04 02:18:12;;;;;;;;;;;18.00;99.90;;;;;;5089737;28;19959;-83
2021/07/04 02:20:39;;;;;;;;;;;17.90;99.90;;;;;;5089837;28;20726;-83
2021/07/04 02:23:09;;;;;;;;;;;17.90;99.90;;;;;;5073634;28;20454;-82
2021/07/04 02:25:36;;;;;;;;;;;17.90;99.90;;;;;;5091851;28;20374;-82
2021/07/04 02:28:02;;;;;;;;;;;17.90;99.90;;;;;;5090056;28;19935;-83
2021/07/04 02:30:29;;;;;;;;;;;17.90;99.90;;;;;;5090384;28;19928;-83
2021/07/04 02:32:55;;;;;;;;;;;17.90;99.90;;;;;;5090158;28;19924;-82
2021/07/04 02:35:21;;;;;;;;;;;17.90;99.90;;;;;;5100493;28;19934;-82
2021/07/04 02:37:47;;;;;;;;;;;17.90;99.90;;;;;;5089630;28;19927;-83
2021/07/04 02:40:13;;;;;;;;;;;17.90;99.90;;;;;;5073287;28;19952;-83
2021/07/04 02:42:40;;;;;;;;;;;17.90;99.90;;;;;;5090080;28;19969;-82
2021/07/04 02:45:06;;;;;;;;;;;17.90;99.90;;;;;;5089919;28;20355;-82
2021/07/04 02:47:32;;;;;;;;;;;17.90;99.90;;;;;;5091450;28;19931;-82
2021/07/04 02:49:58;;;;;;;;;;;17.90;99.90;;;;;;5089243;28;19928;-83
2021/07/04 02:52:24;;;;;;;;;;;17.90;99.90;;;;;;5073331;28;19924;-83
2021/07/04 02:54:49;;;;;;;;;;;17.90;99.90;;;;;;5089762;28;20014;-83
2021/07/04 02:57:15;;;;;;;;;;;17.90;99.90;;;;;;5089164;28;20395;-82
2021/07/04 02:59:41;;;;;;;;;;;17.90;99.90;;;;;;5087838;28;20338;-82
2021/07/04 03:02:07;;;;;;;;;;;17.90;99.90;;;;;;5089151;28;19934;-83
2021/07/04 03:04:33;;;;;;;;;;;17.90;99.90;;;;;;5088318;28;20343;-83
2021/07/04 03:07:00;;;;;;;;;;;17.90;99.90;;;;;;5088808;28;19928;-83
2021/07/04 03:09:27;;;;;;;;;;;18.00;99.90;;;;;;5072417;28;19967;-82
2021/07/04 03:11:52;;;;;;;;;;;18.00;99.90;;;;;;5072741;28;19963;-83
2021/07/04 03:14:18;;;;;;;;;;;18.00;99.90;;;;;;5088496;28;19924;-82
2021/07/04 03:16:44;;;;;;;;;;;18.00;99.90;;;;;;5088657;28;20431;-82
2021/07/04 03:19:10;;;;;;;;;;;18.00;99.90;;;;;;5068495;28;20015;-83
2021/07/04 03:21:36;;;;;;;;;;;18.00;99.90;;;;;;5072058;28;19955;-83
2021/07/04 03:24:02;;;;;;;;;;;18.00;99.90;;;;;;5089413;28;19927;-82
2021/07/04 03:26:27;;;;;;;;;;;18.00;99.90;;;;;;5072827;28;19947;-83
2021/07/04 03:28:54;;;;;;;;;;;18.00;99.90;;;;;;5071023;28;19932;-82
2021/07/04 03:31:19;;;;;;;;;;;18.00;99.90;;;;;;5088887;28;20399;-82
2021/07/04 03:33:45;;;;;;;;;;;18.00;99.90;;;;;;5072376;28;19928;-82
2021/07/04 03:36:11;;;;;;;;;;;18.00;99.90;;;;;;5072264;28;19923;-83
2021/07/04 03:38:36;;;;;;;;;;;18.00;99.90;;;;;;5068526;28;19931;-82
2021/07/04 03:41:02;;;;;;;;;;;18.00;99.90;;;;;;5088432;28;19924;-83
2021/07/04 03:43:28;;;;;;;;;;;18.00;99.90;;;;;;5072200;28;19931;-83
2021/07/04 03:45:53;;;;;;;;;;;18.00;99.90;;;;;;5071223;28;19927;-83
2021/07/04 03:48:19;;;;;;;;;;;18.00;99.90;;;;;;5053850;28;19928;-82
2021/07/04 03:50:45;;;;;;;;;;;18.00;99.90;;;;;;5088448;28;20268;-82
2021/07/04 03:53:12;;;;;;;;;;;18.00;99.90;;;;;;5088434;28;20305;-83
2021/07/04 03:55:37;;;;;;;;;;;18.00;99.90;;;;;;5055494;28;19924;-82
2021/07/04 03:58:03;;;;;;;;;;;18.00;99.90;;;;;;5071638;28;19924;-82
2021/07/04 04:00:29;;;;;;;;;;;18.00;99.90;;;;;;5088112;28;20375;-83
2021/07/04 04:02:55;;;;;;;;;;;18.00;99.90;;;;;;5088540;28;19920;-83
2021/07/04 04:05:20;;;;;;;;;;;18.00;99.90;;;;;;5071323;28;19927;-83
2021/07/04 04:07:46;;;;;;;;;;;18.00;99.90;;;;;;5071657;28;20389;-82
2021/07/04 04:10:12;;;;;;;;;;;18.00;99.90;;;;;;5088012;28;19924;-83
2021/07/04 04:12:38;;;;;;;;;;;18.00;99.90;;;;;;5089512;28;19924;-83
2021/07/04 04:15:05;;;;;;;;;;;18.00;99.90;;;;;;5088186;28;19924;-83
2021/07/04 04:17:31;;;;;;;;;;;18.10;99.90;;;;;;5068104;28;19931;-83
2021/07/04 04:19:57;;;;;;;;;;;18.10;99.90;;;;;;5070729;28;19928;-81
2021/07/04 04:22:23;;;;;;;;;;;18.00;99.90;;;;;;5088843;28;19931;-82
2021/07/04 04:24:49;;;;;;;;;;;18.10;99.90;;;;;;5071335;28;19927;-83
2021/07/04 04:27:15;;;;;;;;;;;18.10;99.90;;;;;;5088130;28;19920;-83
2021/07/04 04:29:40;;;;;;;;;;;18.10;99.90;;;;;;5087845;28;19928;-82
2021/07/04 04:32:06;;;;;;;;;;;18.10;99.90;;;;;;5067829;28;19924;-82
2021/07/04 04:34:32;;;;;;;;;;;18.10;99.90;;;;;;5087281;28;20276;-83
2021/07/04 04:36:58;;;;;;;;;;;18.10;99.90;;;;;;5067967;28;19925;-83
2021/07/04 04:39:24;;;;;;;;;;;18.10;99.90;;;;;;5087270;28;19950;-83
2021/07/04 04:41:50;;;;;;;;;;;18.10;99.90;;;;;;5087594;28;19920;-82
2021/07/04 04:44:16;;;;;;;;;;;18.10;99.90;;;;;;5087893;28;19928;-83
2021/07/04 04:46:41;;;;;;;;;;;18.10;99.90;;;;;;5087470;28;20351;-82
2021/07/04 04:49:08;;;;;;;;;;;18.10;99.90;;;;;;5087545;28;20404;-83
2021/07/04 04:51:34;;;;;;;;;;;18.20;99.90;;;;;;5071072;28;20014;-83
2021/07/04 04:53:59;;;;;;;;;;;18.20;99.90;;;;;;5070997;28;20006;-82
2021/07/04 04:56:25;;;;;;;;;;;18.20;99.90;;;;;;5087664;28;19924;-82
2021/07/04 04:58:51;;;;;;;;;;;18.20;99.90;;;;;;5087122;28;19920;-83
2021/07/04 05:01:17;;;;;;;;;;;18.20;99.90;;;;;;5067242;28;19950;-82
2021/07/04 05:03:44;;;;;;;;;;;18.10;99.90;;;;;;5084446;28;20355;-83
2021/07/04 05:06:10;;;;;;;;;;;18.20;99.90;;;;;;5071042;28;19924;-83
2021/07/04 05:08:36;;;;;;;;;;;18.20;99.90;;;;;;5070370;28;19950;-82
2021/07/04 05:11:02;;;;;;;;;;;18.20;99.90;;;;;;5087476;28;19924;-82
2021/07/04 05:13:27;;;;;;;;;;;18.20;99.90;;;;;;5070711;28;20388;-83
2021/07/04 05:15:53;;;;;;;;;;;18.20;99.90;;;;;;5070105;28;20420;-82
2021/07/04 05:18:19;;;;;;;;;;;18.20;99.90;;;;;;5070547;28;19928;-83
2021/07/04 05:20:45;;;;;;;;;;;18.20;99.90;;;;;;5070369;28;20238;-83
2021/07/04 05:23:11;;;;;;;;;;;18.30;99.90;;;;;;5087682;28;20421;-82
2021/07/04 05:25:36;;;;;;;;;;;18.30;99.90;;;;;;5087728;28;19985;-82
2021/07/04 05:28:02;;;;;;;;;;;18.30;99.90;;;;;;5053134;28;19934;-82
2021/07/04 05:30:28;;;;;;;;;;;18.30;99.90;;;;;;5054253;28;20038;-82
2021/07/04 05:32:54;;;;;;;;;;;18.30;99.90;;;;;;5070404;28;19924;-83
2021/07/04 05:35:19;;;;;;;;;;;18.30;99.90;;;;;;5054101;28;19963;-83
2021/07/04 05:37:46;;;;;;;;;;;18.30;99.90;;;;;;5070672;28;19924;-83
2021/07/04 05:40:14;;;;;;;;;;;18.30;99.90;;;;;;5086599;28;19998;-82
2021/07/04 05:42:43;;;;;;;;;;;18.30;99.90;;;;;;5087333;28;19924;-83
2021/07/04 05:45:10;;;;;;;;;;;18.30;99.90;;;;;;5088547;28;19920;-83
2021/07/04 05:47:36;;;;;;;;;;;18.40;99.90;;;;;;5086969;28;19920;-83
2021/07/04 05:50:02;;;;;;;;;;;18.40;99.90;;;;;;5087080;28;19981;-82
2021/07/04 05:52:28;;;;;;;;;;;18.40;99.90;;;;;;5086895;28;19931;-82
2021/07/04 05:54:53;;;;;;;;;;;18.40;99.90;;;;;;5087461;28;19920;-82
2021/07/04 05:57:19;;;;;;;;;;;18.50;99.90;;;;;;5050183;28;19964;-82
2021/07/04 05:59:45;;;;;;;;;;;18.50;99.90;;;;;;5070614;28;20014;-82
2021/07/04 06:02:11;;;;;;;;;;;18.50;99.90;;;;;;5086634;28;19968;-83
2021/07/04 06:04:37;;;;;;;;;;;18.50;99.90;;;;;;5070142;28;19932;-83
2021/07/04 06:07:03;;;;;;;;;;;18.50;99.90;;;;;;5086773;28;20481;-83
2021/07/04 06:09:28;;;;;;;;;;;18.50;99.90;;;;;;5088084;28;19928;-83
2021/07/04 06:11:54;;;;;;;;;;;18.50;99.90;;;;;;5069883;28;20027;-82
2021/07/04 06:14:19;;;;;;;;;;;18.50;99.90;;;;;;5073366;28;19998;-82
2021/07/04 06:16:45;;;;;;;;;;;18.60;99.90;;;;;;5072053;28;19974;-83
2021/07/04 06:19:11;;;;;;;;;;;18.50;99.90;;;;;;5072928;28;20814;-82
2021/07/04 06:21:37;;;;;;;;;;;18.50;99.90;;;;;;5069900;28;19938;-82
2021/07/04 06:24:03;;;;;;;;;;;18.50;99.90;;;;;;5069884;28;19925;-82
2021/07/04 06:26:29;;;;;;;;;;;18.50;99.90;;;;;;5073505;28;19924;-82
2021/07/04 06:28:55;;;;;;;;;;;18.50;99.90;;;;;;5090491;28;20299;-82
2021/07/04 06:31:21;;;;;;;;;;;18.40;99.90;;;;;;5072948;28;19962;-83
2021/07/04 06:33:49;;;;;;;;;;;18.40;99.90;;;;;;5091258;28;20031;-82
2021/07/04 06:36:14;;;;;;;;;;;18.40;99.90;;;;;;5090227;28;19923;-82
2021/07/04 06:38:40;;;;;;;;;;;18.30;99.90;;;;;;5088759;28;20001;-82
2021/07/04 06:41:06;;;;;;;;;;;18.30;99.90;;;;;;5073008;28;19924;-83
2021/07/04 06:43:31;;;;;;;;;;;18.40;99.90;;;;;;5072999;28;19923;-83
2021/07/04 06:45:57;;;;;;;;;;;18.30;99.90;;;;;;5090067;28;19924;-82
2021/07/04 06:48:23;;;;;;;;;;;18.40;99.90;;;;;;5053336;28;19925;-83
2021/07/04 06:50:48;;;;;;;;;;;18.30;99.90;;;;;;5089851;28;19950;-83
2021/07/04 06:53:14;;;;;;;;;;;18.30;99.90;;;;;;5069107;28;19924;-82
2021/07/04 06:55:40;;;;;;;;;;;18.40;99.90;;;;;;5083660;28;20454;-82
2021/07/04 06:58:06;;;;;;;;;;;18.40;99.90;;;;;;5089919;28;19920;-83
2021/07/04 07:00:32;;;;;;;;;;;18.40;99.90;;;;;;5055998;28;19920;-83
2021/07/04 07:02:57;;;;;;;;;;;18.40;99.90;;;;;;5090644;28;20314;-83
2021/07/04 07:05:23;;;;;;;;;;;18.50;99.90;;;;;;5089640;28;21375;-83
2021/07/04 07:07:49;;;;;;;;;;;18.50;99.90;;;;;;5089213;28;19928;-83
2021/07/04 07:10:15;;;;;;;;;;;18.50;99.90;;;;;;5072431;28;19928;-83
2021/07/04 07:12:41;;;;;;;;;;;18.50;99.90;;;;;;5089108;28;20329;-83
2021/07/04 07:15:08;;;;;;;;;;;18.50;99.90;;;;;;5090725;28;19920;-83
2021/07/04 07:17:33;;;;;;;;;;;18.60;99.90;;;;;;5123627;27;19924;-83
2021/07/04 07:19:59;;;;;;;;;;;18.60;99.90;;;;;;5089488;28;20399;-82
2021/07/04 07:22:26;;;;;;;;;;;18.60;99.90;;;;;;5088480;28;19924;-83
2021/07/04 07:24:51;;;;;;;;;;;18.60;99.90;;;;;;5071943;28;19926;-83
2021/07/04 07:27:17;;;;;;;;;;;18.60;99.90;;;;;;5088100;28;19931;-82
2021/07/04 07:29:43;;;;;;;;;;;18.60;99.90;;;;;;5071629;28;20391;-83
2021/07/04 07:32:08;;;;;;;;;;;18.60;99.90;;;;;;5090469;28;20296;-83
2021/07/04 07:34:34;;;;;;;;;;;18.60;99.90;;;;;;5087885;28;20014;-82
2021/07/04 07:37:00;;;;;;;;;;;18.70;99.90;;;;;;5089733;28;19928;-82
2021/07/04 07:39:26;;;;;;;;;;;18.70;99.90;;;;;;5089116;28;19920;-83
2021/07/04 07:41:52;;;;;;;;;;;18.70;99.90;;;;;;5087782;28;19923;-82
2021/07/04 07:44:18;;;;;;;;;;;18.80;99.90;;;;;;5088849;28;19924;-82
2021/07/04 07:46:43;;;;;;;;;;;18.80;99.90;;;;;;5088772;28;19924;-83
2021/07/04 07:49:10;;;;;;;;;;;18.80;99.90;;;;;;5088509;28;20458;-83
2021/07/04 07:51:36;;;;;;;;;;;18.80;99.90;;;;;;5088790;28;20404;-83
2021/07/04 07:54:03;;;;;;;;;;;18.90;99.90;;;;;;5068358;28;19924;-82
2021/07/04 07:56:28;;;;;;;;;;;18.90;99.90;;;;;;5071241;28;19924;-85
2021/07/04 07:58:54;;;;;;;;;;;18.90;99.90;;;;;;5071495;28;19931;-85
2021/07/04 08:01:20;;;;;;;;;;;18.90;99.90;;;;;;5087751;28;19953;-85
2021/07/04 08:03:46;;;;;;;;;;;18.90;99.90;;;;;;5068090;28;20015;-85
2021/07/04 08:06:11;;;;;;;;;;;19.00;99.90;;;;;;5094366;28;19924;-84
2021/07/04 08:08:37;;;;;;;;;;;18.90;99.90;;;;;;5088080;28;20432;-84
2021/07/04 08:11:03;;;;;;;;;;;19.00;99.90;;;;;;5088481;28;19923;-84
2021/07/04 08:13:29;;;;;;;;;;;19.00;99.90;;;;;;5088296;28;21435;-84
2021/07/04 08:15:54;;;;;;;;;;;19.10;99.90;;;;;;5071660;28;19920;-84
2021/07/04 08:18:21;;;;;;;;;;;19.00;99.90;;;;;;5088298;28;19924;-84
2021/07/04 08:20:47;;;;;;;;;;;19.10;99.90;;;;;;5087810;28;20391;-84
2021/07/04 08:23:13;;;;;;;;;;;19.10;99.90;;;;;;5051178;28;19973;-84
2021/07/04 08:25:39;;;;;;;;;;;19.10;99.90;;;;;;5087815;28;19920;-85
2021/07/04 08:28:05;;;;;;;;;;;19.10;99.90;;;;;;5071446;28;20353;-84
2021/07/04 08:30:30;;;;;;;;;;;19.20;99.90;;;;;;5087938;28;19963;-84
2021/07/04 08:32:56;;;;;;;;;;;19.30;99.90;;;;;;5087065;28;19924;-88
2021/07/04 08:35:22;;;;;;;;;;;19.40;99.90;;;;;;5089162;28;19931;-87
2021/07/04 08:37:48;;;;;;;;;;;19.40;99.90;;;;;;5072378;28;20264;-86
2021/07/04 08:40:14;;;;;;;;;;;19.40;99.90;;;;;;5087384;28;20042;-87
2021/07/04 08:42:42;;;;;;;;;;;19.40;99.90;;;;;;5089569;28;19920;-87
2021/07/04 08:45:09;;;;;;;;;;;19.40;99.90;;;;;;5087257;28;20464;-87
2021/07/04 08:47:35;;;;;;;;;;;19.40;99.90;;;;;;5088415;28;20015;-87
2021/07/04 08:50:01;;;;;;;;;;;19.40;99.90;;;;;;5087749;28;20023;-87
2021/07/04 08:52:26;;;;;;;;;;;19.40;99.90;;;;;;5088476;28;19973;-89
2021/07/04 08:54:52;;;;;;;;;;;19.40;99.90;;;;;;5063112;28;20268;-89
2021/07/04 08:57:18;;;;;;;;;;;19.50;99.90;;;;;;5089421;28;19924;-88
2021/07/04 08:59:45;;;;;;;;;;;19.50;99.90;;;;;;5113986;28;20272;-89
2021/07/04 09:02:13;;;;;;;;;;;19.60;99.90;;;;;;5086254;28;19934;-89
2021/07/04 09:04:39;;;;;;;;;;;19.60;99.90;;;;;;5071950;28;20774;-89
2021/07/04 09:07:05;;;;;;;;;;;19.80;99.90;;;;;;5089155;28;19932;-90
2021/07/04 09:09:32;;;;;;;;;;;19.80;99.90;;;;;;5066082;28;19977;-90
2021/07/04 09:12:06;;;;;;;;;;;19.80;99.90;;;;;;5088952;28;19931;-87
2021/07/04 09:14:39;;;;;;;;;;;19.80;99.90;;;;;;5063604;28;20317;-87
2021/07/04 09:17:11;;;;;;;;;;;19.80;99.90;;;;;;5088355;28;20433;-87
2021/07/04 09:19:39;;;;;;;;;;;19.80;99.90;;;;;;5086991;28;20326;-88
2021/07/04 09:22:09;;;;;;;;;;;19.90;99.90;;;;;;5086201;28;19924;-87
2021/07/04 09:24:42;;;;;;;;;;;19.80;99.90;;;;;;5086505;28;20013;-87
2021/07/04 09:27:10;;;;;;;;;;;19.80;99.90;;;;;;5071398;28;19958;-86
2021/07/04 09:29:45;;;;;;;;;;;19.90;99.90;;;;;;5120357;28;19924;-86
2021/07/04 09:32:14;;;;;;;;;;;19.90;99.90;;;;;;5104791;28;19931;-87
2021/07/04 09:34:40;;;;;;;;;;;19.90;99.90;;;;;;5087259;28;20382;-86
2021/07/04 09:37:06;;;;;;;;;;;19.90;99.90;;;;;;5087036;28;19930;-87
2021/07/04 09:39:31;;;;;;;;;;;19.90;99.90;;;;;;5071717;28;19916;-86
2021/07/04 09:42:01;;;;;;;;;;;20.00;99.90;;;;;;5089279;28;19920;-87
2021/07/04 09:44:26;;;;;;;;;;;20.00;99.90;;;;;;5086514;28;19916;-87
2021/07/04 09:47:11;;;;;;;;;;;20.00;99.90;;;;;;5074998;28;19931;-87
2021/07/04 09:49:37;;;;;;;;;;;20.00;99.90;;;;;;5074908;28;19928;-87
2021/07/04 09:52:13;;;;;;;;;;;20.10;99.90;;;;;;5074456;28;20410;-87
2021/07/04 09:54:51;;;;;;;;;;;20.10;99.90;;;;;;5092586;28;20391;-87
2021/07/04 09:57:17;;;;;;;;;;;20.10;99.90;;;;;;5092187;28;19920;-87
2021/07/04 09:59:43;;;;;;;;;;;20.20;99.90;;;;;;5074139;28;20357;-87
2021/07/04 10:02:13;;;;;;;;;;;20.30;99.90;;;;;;5075271;28;19961;-87
2021/07/04 10:04:39;;;;;;;;;;;20.30;99.90;;;;;;5091963;28;19924;-87
2021/07/04 10:07:05;;;;;;;;;;;20.40;99.90;;;;;;5073318;28;19931;-87
2021/07/04 10:09:31;;;;;;;;;;;20.40;99.90;;;;;;5090719;28;20018;-87
2021/07/04 10:11:57;;;;;;;;;;;20.50;99.90;;;;;;5091493;28;19927;-87
2021/07/04 10:14:23;;;;;;;;;;;20.60;99.90;;;;;;5072407;28;19946;-87
2021/07/04 10:16:49;;;;;;;;;;;20.70;99.90;;;;;;5090907;28;19924;-87
2021/07/04 10:19:20;;;;;;;;;;;20.80;99.90;;;;;;5090630;28;19924;-87
2021/07/04 10:21:46;;;;;;;;;;;20.90;99.90;;;;;;5089936;28;20015;-87
2021/07/04 10:24:12;;;;;;;;;;;20.80;99.90;;;;;;5066072;28;19935;-87
2021/07/04 10:26:39;;;;;;;;;;;20.80;99.90;;;;;;5055029;28;19975;-88
2021/07/04 10:29:07;;;;;;;;;;;20.80;99.90;;;;;;5095521;28;20467;-88
2021/07/04 10:31:34;;;;;;;;;;;20.80;99.90;;;;;;5090627;28;19924;-87
2021/07/04 10:34:19;;;;;;;;;;;20.80;99.90;;;;;;5090716;28;19977;-87
2021/07/04 10:36:54;;;;;;;;;;;20.80;99.90;;;;;;5123057;27;19923;-87
2021/07/04 10:39:20;;;;;;;;;;;20.80;99.90;;;;;;5090918;28;19926;-87
2021/07/04 10:41:55;;;;;;;;;;;20.80;99.90;;;;;;5091346;28;20326;-87
2021/07/04 10:44:40;;;;;;;;;;;20.90;99.90;;;;;;5072759;28;19954;-86
2021/07/04 10:47:07;;;;;;;;;;;20.90;99.90;;;;;;5083722;28;20508;-87
2021/07/04 10:49:36;;;;;;;;;;;20.80;99.90;;;;;;5090281;28;19924;-87
2021/07/04 10:52:04;;;;;;;;;;;20.80;99.90;;;;;;5087787;28;19928;-87
2021/07/04 10:54:39;;;;;;;;;;;20.80;99.90;;;;;;5091443;28;19931;-88
2021/07/04 10:57:06;;;;;;;;;;;20.80;99.90;;;;;;5073248;28;20283;-87
2021/07/04 10:59:31;;;;;;;;;;;20.80;99.90;;;;;;5089182;28;19927;-87
2021/07/04 11:01:58;;;;;;;;;;;20.80;99.90;;;;;;5090379;28;19920;-89
2021/07/04 11:04:27;;;;;;;;;;;20.80;99.90;;;;;;5091343;28;19924;-88
2021/07/04 11:06:54;;;;;;;;;;;20.80;99.90;;;;;;5090535;28;19939;-88
2021/07/04 11:09:19;;;;;;;;;;;20.80;99.90;;;;;;5075217;28;19973;-86
2021/07/04 11:11:45;;;;;;;;;;;20.80;99.90;;;;;;5073339;28;20363;-90
2021/07/04 11:14:11;;;;;;;;;;;20.70;99.90;;;;;;5073316;28;19924;-86
2021/07/04 11:16:36;;;;;;;;;;;20.70;99.90;;;;;;5074870;28;19920;-89
2021/07/04 11:19:06;;;;;;;;;;;20.80;99.90;;;;;;5091038;28;20400;-87
2021/07/04 11:21:58;;;;;;;;;;;20.90;99.90;;;;;;5091024;28;19920;-85
2021/07/04 11:24:25;;;;;;;;;;;21.00;99.90;;;;;;5083826;28;20469;-85
2021/07/04 11:27:10;;;;;;;;;;;21.00;99.90;;;;;;5090140;28;19924;-86
2021/07/04 11:29:36;;;;;;;;;;;21.20;99.90;;;;;;5075003;28;19932;-86
2021/07/04 11:32:28;;;;;;;;;;;21.20;99.90;;;;;;5063668;28;19917;-90
2021/07/04 11:34:54;;;;;;;;;;;21.30;99.90;;;;;;5087978;28;19924;-90
2021/07/04 11:37:20;;;;;;;;;;;21.40;99.90;;;;;;5068308;28;20379;-90
2021/07/04 11:39:57;;;;;;;;;;;21.40;99.90;;;;;;5071713;28;19923;-89
2021/07/04 11:42:23;;;;;;;;;;;21.50;99.90;;;;;;5089591;28;20390;-89
2021/07/04 11:44:49;;;;;;;;;;;21.60;99.90;;;;;;5091731;28;19924;-87
2021/07/04 11:47:15;;;;;;;;;;;21.60;99.90;;;;;;5074806;28;19924;-89
2021/07/04 11:49:40;;;;;;;;;;;21.60;99.90;;;;;;5073328;28;19982;-85
2021/07/04 11:52:06;;;;;;;;;;;21.60;99.90;;;;;;5088611;28;19928;-86
2021/07/04 11:54:34;;;;;;;;;;;21.50;99.90;;;;;;5072310;28;19920;-86
2021/07/04 11:59:54;;;;;;;;;;;21.60;99.90;;;;;;5088109;28;20280;-90
2021/07/04 12:02:19;;;;;;;;;;;21.70;99.90;;;;;;5069398;28;20011;-85
2021/07/04 12:04:45;;;;;;;;;;;21.80;99.90;;;;;;5085449;28;20011;-85
2021/07/04 12:07:12;;;;;;;;;;;21.90;99.90;;;;;;5087309;28;20370;-85
2021/07/04 12:09:45;;;;;;;;;;;21.90;99.90;;;;;;5087094;28;19919;-85
2021/07/04 12:12:25;;;;;;;;;;;22.00;99.90;;;;;;5085282;28;19924;-85
2021/07/04 12:14:54;;;;;;;;;;;22.10;99.90;;;;;;5087731;28;19943;-85
2021/07/04 12:17:21;;;;;;;;;;;22.10;99.90;;;;;;5088256;28;19927;-85
2021/07/04 12:19:52;;;;;;;;;;;22.10;99.90;;;;;;5084999;28;19924;-85
2021/07/04 12:22:19;;;;;;;;;;;22.10;99.90;;;;;;5068676;28;19920;-85
2021/07/04 12:24:45;;;;;;;;;;;22.00;99.90;;;;;;5087601;28;19920;-85
2021/07/04 12:27:11;;;;;;;;;;;22.00;99.90;;;;;;5069636;28;20391;-85
2021/07/04 12:29:56;;;;;;;;;;;22.00;99.90;;;;;;5087968;28;19920;-85
2021/07/04 12:32:21;;;;;;;;;;;22.00;99.90;;;;;;5088156;28;19924;-84
2021/07/04 12:34:47;;;;;;;;;;;22.10;99.90;;;;;;5084984;28;20068;-85
2021/07/04 12:37:13;;;;;;;;;;;22.10;99.90;;;;;;5069968;28;20375;-85
2021/07/04 12:39:45;;;;;;;;;;;22.20;99.90;;;;;;5070305;28;19931;-85
2021/07/04 12:42:24;;;;;;;;;;;22.10;99.90;;;;;;5064046;28;20414;-85
2021/07/04 12:45:20;;;;;;;;;;;22.20;99.90;;;;;;5070257;28;19920;-85
2021/07/04 12:48:05;;;;;;;;;;;22.30;99.90;;;;;;5074542;28;20457;-84
2021/07/04 12:50:45;;;;;;;;;;;22.40;99.90;;;;;;5093830;28;19978;-85
2021/07/04 12:53:11;;;;;;;;;;;22.30;99.90;;;;;;5087370;28;19947;-84
2021/07/04 12:55:57;;;;;;;;;;;22.30;99.90;;;;;;5070081;28;20426;-85
2021/07/04 12:58:31;;;;;;;;;;;22.30;99.90;;;;;;5085904;28;19928;-85
2021/07/04 13:01:09;;;;;;;;;;;22.30;99.90;;;;;;5085356;28;20007;-84
2021/07/04 13:03:55;;;;;;;;;;;22.30;99.90;;;;;;5086174;28;19928;-85
2021/07/04 13:06:50;;;;;;;;;;;22.30;99.90;;;;;;5087077;28;20346;-85
2021/07/04 13:09:25;;;;;;;;;;;22.40;99.90;;;;;;5064338;28;20049;-85
2021/07/04 13:11:57;;;;;;;;;;;22.40;99.90;;;;;;5085634;28;19924;-85
2021/07/04 13:14:42;;;;;;;;;;;22.50;99.90;;;;;;5070962;28;20994;-85
2021/07/04 13:17:22;;;;;;;;;;;22.50;99.90;;;;;;5087426;28;19924;-85
2021/07/04 13:19:49;;;;;;;;;;;22.60;99.90;;;;;;5089393;28;20710;-85
2021/07/04 13:22:26;;;;;;;;;;;22.80;99.90;;;;;;5093324;28;19920;-85
2021/07/04 13:24:57;;;;;;;;;;;22.80;99.90;;;;;;5091096;28;19920;-85
2021/07/04 13:27:24;;;;;;;;;;;22.70;99.90;;;;;;5089663;28;19928;-85
2021/07/04 13:29:51;;;;;;;;;;;22.70;99.90;;;;;;5091235;28;20448;-85
2021/07/04 13:32:17;;;;;;;;;;;22.70;99.90;;;;;;5059794;28;20007;-85
2021/07/04 13:34:45;;;;;;;;;;;22.70;99.90;;;;;;5089301;28;19920;-84
2021/07/04 13:37:12;;;;;;;;;;;22.70;99.90;;;;;;5090220;28;19946;-85
2021/07/04 13:39:57;;;;;;;;;;;22.70;99.90;;;;;;5092415;28;19928;-85
2021/07/04 13:42:23;;;;;;;;;;;22.80;99.90;;;;;;5073758;28;19967;-85
2021/07/04 13:44:49;;;;;;;;;;;22.90;99.90;;;;;;5091293;28;19924;-85
2021/07/04 13:47:14;;;;;;;;;;;22.90;99.90;;;;;;5085449;28;20655;-85
2021/07/04 13:49:40;;;;;;;;;;;22.90;99.90;;;;;;5088464;28;19978;-85
2021/07/04 13:52:07;;;;;;;;;;;22.80;99.90;;;;;;5089010;28;19920;-85
2021/07/04 13:54:33;;;;;;;;;;;22.80;99.90;;;;;;5098130;28;19928;-85
2021/07/04 13:56:59;;;;;;;;;;;22.80;99.90;;;;;;5107405;28;20311;-85
2021/07/04 13:59:25;;;;;;;;;;;22.90;99.90;;;;;;5096252;28;19924;-85
2021/07/04 14:01:50;;;;;;;;;;;22.90;99.90;;;;;;5075804;28;20268;-85
2021/07/04 14:04:19;;;;;;;;;;;22.80;99.90;;;;;;5102812;28;19969;-85
2021/07/04 14:06:45;;;;;;;;;;;22.80;99.90;;;;;;5073132;28;19927;-85
2021/07/04 14:09:17;;;;;;;;;;;22.70;99.90;;;;;;5074467;28;19920;-85
2021/07/04 14:11:45;;;;;;;;;;;22.60;99.90;;;;;;5073052;28;19974;-85
2021/07/04 14:14:11;;;;;;;;;;;22.60;99.90;;;;;;5091827;28;19928;-85
2021/07/04 14:16:37;;;;;;;;;;;22.50;99.90;;;;;;5077455;28;19930;-85
2021/07/04 14:19:04;;;;;;;;;;;22.40;99.90;;;;;;5090454;28;19920;-85
2021/07/04 14:21:30;;;;;;;;;;;22.40;99.90;;;;;;5071568;28;20387;-85